Terminal Aerodrome Forecast
Issued by NWS

Home | Current Version | Previous Version | Text Only | Print | Product List | Glossary On
Versions: 1 2 3 4 5 6 7 8 9 10 11 12 13 14 15
000
FTUS41 KBOX 181120
TAFFMH
TAF
KFMH 181120Z 1812/1912 15006KT P6SM BKN050
     FM181500 18010G17KT 6SM -SHRA OVC025
     FM181700 18011G20KT P6SM VCSH OVC010
     FM182200 19012G23KT 4SM -SHRA BR VCTS OVC010CB
     FM190200 19012G24KT 4SM -SHRA BR OVC008=

USA.gov is the U.S. government's official web portal to all federal, state and local government web resources and services.